Time;durP1;ratioP1;P1;durP2;ratioP2;P2;SDS_P1;SDS_P2;PMS_P1;PMS_P2;Temp;Humidity;BMP_temperature;BMP_pressure;BME280_temperature;BME280_humidity;BME280_pressure;Samples;Min_cycle;Max_cycle;Signal;HPM_P1;HPM_P2
2023/06/26 00:00:49;;;;;;;16.08;6.47;;;;;;;;;;10519944;28;20101;-79
2023/06/26 00:05:50;;;;;;;9.27;5.95;;;;;;;;;;10533062;28;20044;-79
2023/06/26 00:10:51;;;;;;;9.23;5.63;;;;;;;;;;10532286;28;20039;-79
2023/06/26 00:15:52;;;;;;;9.65;5.63;;;;;;;;;;10514906;28;20020;-80
2023/06/26 00:20:53;;;;;;;9.80;5.88;;;;;;;;;;10525039;28;20036;-79
2023/06/26 00:25:54;;;;;;;10.05;6.18;;;;;;;;;;10524985;28;20024;-82
2023/06/26 00:30:55;;;;;;;11.85;6.80;;;;;;;;;;10519905;28;20038;-81
2023/06/26 00:35:56;;;;;;;12.60;6.50;;;;;;;;;;10532016;28;20042;-80
2023/06/26 00:40:57;;;;;;;10.95;6.53;;;;;;;;;;10531107;28;20036;-79
2023/06/26 00:45:58;;;;;;;14.98;7.50;;;;;;;;;;10528951;28;20032;-80
2023/06/26 00:50:59;;;;;;;14.07;7.57;;;;;;;;;;10530108;28;20024;-79
2023/06/26 00:56:01;;;;;;;12.93;6.70;;;;;;;;;;10530265;28;20024;-80
2023/06/26 01:01:05;;;;;;;17.40;7.97;;;;;;;;;;10529827;28;20071;-80
2023/06/26 01:06:06;;;;;;;20.70;8.00;;;;;;;;;;10531145;28;20395;-79
2023/06/26 01:11:07;;;;;;;17.98;8.77;;;;;;;;;;10530839;28;20101;-79
2023/06/26 01:16:09;;;;;;;18.88;8.15;;;;;;;;;;10521345;28;20384;-80
2023/06/26 01:21:10;;;;;;;16.17;7.55;;;;;;;;;;10528669;28;20034;-79
2023/06/26 01:26:11;;;;;;;15.40;6.50;;;;;;;;;;10529193;28;20044;-80
2023/06/26 01:31:13;;;;;;;12.10;6.43;;;;;;;;;;10543230;23;20060;-78
2023/06/26 01:36:14;;;;;;;9.35;5.80;;;;;;;;;;10555265;28;20034;-79
2023/06/26 01:41:15;;;;;;;11.55;5.38;;;;;;;;;;10552376;28;20024;-80
2023/06/26 01:46:23;;;;;;;11.90;6.10;;;;;;;;;;10514601;28;20104;-80
2023/06/26 01:51:27;;;;;;;11.20;5.80;;;;;;;;;;10509204;28;20085;-81
2023/06/26 01:56:30;;;;;;;10.38;5.30;;;;;;;;;;10539194;28;20538;-80
2023/06/26 02:01:33;;;;;;;11.65;6.32;;;;;;;;;;10545837;27;20020;-79
2023/06/26 02:06:34;;;;;;;13.77;6.15;;;;;;;;;;10569120;28;20102;-79
2023/06/26 02:11:35;;;;;;;15.18;6.30;;;;;;;;;;10543833;28;20034;-80
2023/06/26 02:16:36;;;;;;;11.32;5.63;;;;;;;;;;10555622;28;20047;-80
2023/06/26 02:21:38;;;;;;;12.68;6.72;;;;;;;;;;10545222;28;20043;-80
2023/06/26 02:26:39;;;;;;;12.10;6.13;;;;;;;;;;10570628;28;20020;-82
2023/06/26 02:31:40;;;;;;;8.77;5.60;;;;;;;;;;10536741;28;20796;-79
2023/06/26 02:36:41;;;;;;;7.97;5.45;;;;;;;;;;10541479;28;20040;-79
2023/06/26 02:41:43;;;;;;;11.88;5.60;;;;;;;;;;10535422;28;20035;-79
2023/06/26 02:46:44;;;;;;;8.27;5.28;;;;;;;;;;10543019;28;20043;-82
2023/06/26 02:51:45;;;;;;;9.93;5.63;;;;;;;;;;10524142;28;20089;-81
2023/06/26 02:56:46;;;;;;;8.32;5.13;;;;;;;;;;10548630;28;20053;-81
2023/06/26 03:01:47;;;;;;;7.75;5.13;;;;;;;;;;10559453;28;20063;-82
2023/06/26 03:06:48;;;;;;;8.27;5.32;;;;;;;;;;10534328;28;20040;-81
2023/06/26 03:11:49;;;;;;;7.65;5.10;;;;;;;;;;10522708;28;20031;-81
2023/06/26 03:16:52;;;;;;;8.75;4.93;;;;;;;;;;10508034;28;20125;-81
2023/06/26 03:21:54;;;;;;;9.63;5.53;;;;;;;;;;10524675;28;20077;-83
2023/06/26 03:26:55;;;;;;;9.98;5.50;;;;;;;;;;10526326;28;20426;-82
2023/06/26 03:31:56;;;;;;;9.75;6.05;;;;;;;;;;10526674;28;20060;-81
2023/06/26 03:36:58;;;;;;;11.65;6.93;;;;;;;;;;10526544;28;20047;-81
2023/06/26 03:42:00;;;;;;;10.88;7.00;;;;;;;;;;10526417;28;20031;-80
2023/06/26 03:47:01;;;;;;;9.27;6.18;;;;;;;;;;10529484;28;20105;-82
2023/06/26 03:52:02;;;;;;;11.50;6.40;;;;;;;;;;10533778;28;20040;-79
2023/06/26 03:57:03;;;;;;;9.82;6.20;;;;;;;;;;10534243;28;20102;-79
2023/06/26 04:02:04;;;;;;;9.60;6.38;;;;;;;;;;10533622;28;20032;-79
2023/06/26 04:07:05;;;;;;;9.93;6.47;;;;;;;;;;10524254;28;20369;-79
2023/06/26 04:12:07;;;;;;;16.13;7.00;;;;;;;;;;10515856;28;20091;-79
2023/06/26 04:17:08;;;;;;;13.43;7.22;;;;;;;;;;10555443;28;20368;-79
2023/06/26 04:22:09;;;;;;;11.13;6.63;;;;;;;;;;10531494;28;20020;-82
2023/06/26 04:27:10;;;;;;;16.67;7.72;;;;;;;;;;10565329;28;20020;-78
2023/06/26 04:32:11;;;;;;;13.18;7.35;;;;;;;;;;10533130;28;20139;-79
2023/06/26 04:37:16;;;;;;;14.48;8.38;;;;;;;;;;10532372;28;20089;-80
2023/06/26 04:42:17;;;;;;;14.18;8.40;;;;;;;;;;10529787;28;20077;-81
2023/06/26 04:47:18;;;;;;;16.60;9.60;;;;;;;;;;10529324;28;20036;-81
2023/06/26 04:52:19;;;;;;;17.70;10.30;;;;;;;;;;10514905;28;20036;-83
2023/06/26 04:57:20;;;;;;;19.70;10.25;;;;;;;;;;10530092;28;20035;-84
2023/06/26 05:02:21;;;;;;;15.02;10.00;;;;;;;;;;10549767;28;20054;-83
2023/06/26 05:07:22;;;;;;;15.40;9.68;;;;;;;;;;10567522;28;20027;-83
2023/06/26 05:12:23;;;;;;;13.55;9.15;;;;;;;;;;10530736;28;20026;-84
2023/06/26 05:17:24;;;;;;;17.63;9.60;;;;;;;;;;10566590;28;20072;-84
2023/06/26 05:22:26;;;;;;;14.88;9.10;;;;;;;;;;10549870;28;20029;-83
2023/06/26 05:27:28;;;;;;;11.82;8.15;;;;;;;;;;10569468;28;20350;-83
2023/06/26 05:32:29;;;;;;;11.93;7.85;;;;;;;;;;10546438;28;20404;-84
2023/06/26 05:37:31;;;;;;;14.55;8.23;;;;;;;;;;10555241;28;20078;-83
2023/06/26 05:42:32;;;;;;;11.10;7.18;;;;;;;;;;10559807;28;20024;-84
2023/06/26 05:47:34;;;;;;;11.40;7.75;;;;;;;;;;10554650;28;20085;-84
2023/06/26 05:52:35;;;;;;;12.98;6.85;;;;;;;;;;10556889;28;20506;-83
2023/06/26 05:57:38;;;;;;;11.85;7.53;;;;;;;;;;10542847;28;20050;-83
2023/06/26 06:02:39;;;;;;;11.57;7.20;;;;;;;;;;10563932;28;20027;-84
2023/06/26 06:07:40;;;;;;;10.52;6.85;;;;;;;;;;10547192;28;20039;-84
2023/06/26 06:12:42;;;;;;;13.93;8.15;;;;;;;;;;10564989;28;20031;-84
2023/06/26 06:17:43;;;;;;;10.65;7.57;;;;;;;;;;10530800;28;20047;-83
2023/06/26 06:22:44;;;;;;;11.60;7.45;;;;;;;;;;10529030;28;20035;-84
2023/06/26 06:27:45;;;;;;;12.68;7.32;;;;;;;;;;10540572;28;20036;-84
2023/06/26 06:32:50;;;;;;;12.20;7.25;;;;;;;;;;10554848;28;20380;-84
2023/06/26 06:37:51;;;;;;;13.20;6.97;;;;;;;;;;10539691;28;20400;-84
2023/06/26 06:42:53;;;;;;;12.68;8.25;;;;;;;;;;10546680;28;20044;-84
2023/06/26 06:47:54;;;;;;;8.98;6.35;;;;;;;;;;10556334;28;20471;-83
2023/06/26 06:52:55;;;;;;;13.55;7.03;;;;;;;;;;10549346;28;20032;-85
2023/06/26 06:57:56;;;;;;;12.75;7.82;;;;;;;;;;10536593;28;20027;-86
2023/06/26 07:02:57;;;;;;;9.80;7.00;;;;;;;;;;10545518;28;20028;-87
2023/06/26 07:07:58;;;;;;;9.23;6.68;;;;;;;;;;10555269;28;20024;-85
2023/06/26 07:12:59;;;;;;;10.80;6.38;;;;;;;;;;10526837;28;20486;-85
2023/06/26 07:18:00;;;;;;;11.95;6.30;;;;;;;;;;10529007;28;20135;-85
2023/06/26 07:23:01;;;;;;;7.70;4.45;;;;;;;;;;10555875;28;20605;-84
2023/06/26 07:28:02;;;;;;;8.20;5.32;;;;;;;;;;10535666;28;20039;-84
2023/06/26 07:33:03;;;;;;;7.85;4.55;;;;;;;;;;10537071;28;20463;-85
2023/06/26 07:38:04;;;;;;;7.95;4.70;;;;;;;;;;10547223;28;20048;-87
2023/06/26 07:43:05;;;;;;;6.90;4.70;;;;;;;;;;10561127;28;20173;-84
2023/06/26 07:48:08;;;;;;;8.15;4.72;;;;;;;;;;10536341;28;20060;-85
2023/06/26 07:53:09;;;;;;;4.95;3.17;;;;;;;;;;10548025;28;20028;-85
2023/06/26 07:58:10;;;;;;;4.65;3.53;;;;;;;;;;10545273;28;20093;-83
2023/06/26 08:03:11;;;;;;;4.65;3.85;;;;;;;;;;10535941;28;20031;-83
2023/06/26 08:08:12;;;;;;;4.65;3.70;;;;;;;;;;10537581;28;20036;-84
2023/06/26 08:13:13;;;;;;;7.18;4.25;;;;;;;;;;10538693;28;20031;-83
2023/06/26 08:18:14;;;;;;;6.93;4.20;;;;;;;;;;10534825;28;20103;-83
2023/06/26 08:23:15;;;;;;;6.13;4.10;;;;;;;;;;10544296;28;20031;-87
2023/06/26 08:28:16;;;;;;;6.15;4.07;;;;;;;;;;10559895;28;20023;-84
2023/06/26 08:33:17;;;;;;;6.07;4.30;;;;;;;;;;10539883;28;20048;-83
2023/06/26 08:38:21;;;;;;;7.60;4.53;;;;;;;;;;10530567;28;20031;-84
2023/06/26 08:43:22;;;;;;;6.85;4.80;;;;;;;;;;10547388;28;20028;-84
2023/06/26 08:48:23;;;;;;;6.45;4.28;;;;;;;;;;10544997;28;20399;-85
2023/06/26 08:53:34;;;;;;;6.63;4.32;;;;;;;;;;10534300;28;20390;-84
2023/06/26 08:58:37;;;;;;;8.50;4.15;;;;;;;;;;10545509;28;20499;-84
2023/06/26 09:03:38;;;;;;;4.90;4.05;;;;;;;;;;10533298;28;20493;-83
2023/06/26 09:08:39;;;;;;;5.63;3.90;;;;;;;;;;10538916;28;20035;-82
2023/06/26 09:13:41;;;;;;;5.65;4.30;;;;;;;;;;10535425;28;20150;-82
2023/06/26 09:18:45;;;;;;;5.72;3.88;;;;;;;;;;10532321;28;20531;-83
2023/06/26 09:23:46;;;;;;;9.35;4.07;;;;;;;;;;10536996;28;20038;-83
2023/06/26 09:28:49;;;;;;;7.10;4.78;;;;;;;;;;10550009;28;20032;-83
2023/06/26 09:33:56;;;;;;;7.65;4.22;;;;;;;;;;10534540;28;20121;-86
2023/06/26 09:38:57;;;;;;;6.70;4.50;;;;;;;;;;10550386;28;20065;-85
2023/06/26 09:44:02;;;;;;;5.97;4.40;;;;;;;;;;10529829;28;20040;-82
2023/06/26 09:49:07;;;;;;;8.25;4.13;;;;;;;;;;10541369;28;20035;-82
2023/06/26 09:54:09;;;;;;;5.22;3.85;;;;;;;;;;10523626;28;20032;-83
2023/06/26 09:59:10;;;;;;;5.50;4.35;;;;;;;;;;10528750;28;20085;-83
2023/06/26 10:04:11;;;;;;;5.95;4.43;;;;;;;;;;10548713;28;20090;-83
2023/06/26 10:09:13;;;;;;;5.25;4.38;;;;;;;;;;10570916;28;20393;-85
2023/06/26 10:14:15;;;;;;;4.28;3.53;;;;;;;;;;10533732;28;20043;-83
2023/06/26 10:19:23;;;;;;;5.45;3.95;;;;;;;;;;10528428;28;20032;-83
2023/06/26 10:24:25;;;;;;;4.85;3.45;;;;;;;;;;10556285;28;20024;-86
2023/06/26 10:29:27;;;;;;;9.02;4.70;;;;;;;;;;10528370;28;20032;-82
2023/06/26 10:34:28;;;;;;;4.57;3.63;;;;;;;;;;10554724;28;20024;-82
2023/06/26 10:39:47;;;;;;;4.88;3.90;;;;;;;;;;10559247;28;20039;-83
2023/06/26 10:44:48;;;;;;;7.20;4.10;;;;;;;;;;10528734;28;20140;-82
2023/06/26 10:49:49;;;;;;;5.70;3.78;;;;;;;;;;10547011;28;20395;-83
2023/06/26 10:54:50;;;;;;;5.03;4.25;;;;;;;;;;10552137;28;20024;-85
2023/06/26 11:00:10;;;;;;;7.00;4.57;;;;;;;;;;10548217;28;20051;-83
2023/06/26 11:05:11;;;;;;;4.57;4.00;;;;;;;;;;10533793;28;20148;-82
2023/06/26 11:10:12;;;;;;;8.75;6.07;;;;;;;;;;10559943;28;20032;-82
2023/06/26 11:15:14;;;;;;;5.35;4.10;;;;;;;;;;10534197;28;20036;-84
2023/06/26 11:20:17;;;;;;;4.90;3.90;;;;;;;;;;10523646;28;20024;-84
2023/06/26 11:25:20;;;;;;;5.28;4.00;;;;;;;;;;10521189;28;20032;-83
2023/06/26 11:30:24;;;;;;;8.57;4.60;;;;;;;;;;10535822;28;20714;-85
2023/06/26 11:35:30;;;;;;;4.75;3.70;;;;;;;;;;10533579;28;20049;-83
2023/06/26 11:40:34;;;;;;;6.65;4.65;;;;;;;;;;10535458;28;20631;-85
2023/06/26 11:45:35;;;;;;;6.80;4.47;;;;;;;;;;10534934;28;20052;-84
2023/06/26 11:50:38;;;;;;;4.55;3.70;;;;;;;;;;10531735;28;20048;-86
2023/06/26 11:55:43;;;;;;;4.20;3.80;;;;;;;;;;10533736;28;20558;-84
2023/06/26 12:00:44;;;;;;;5.60;4.40;;;;;;;;;;10532536;28;20471;-84
2023/06/26 12:05:45;;;;;;;5.00;3.92;;;;;;;;;;10522254;28;20024;-83
2023/06/26 12:10:46;;;;;;;6.38;4.43;;;;;;;;;;10518832;28;20028;-85
2023/06/26 12:15:47;;;;;;;5.18;4.30;;;;;;;;;;10542172;28;20031;-84
2023/06/26 12:20:48;;;;;;;6.35;4.95;;;;;;;;;;10550402;28;20132;-85
2023/06/26 12:25:51;;;;;;;6.25;3.25;;;;;;;;;;10523166;28;20046;-84
2023/06/26 12:31:11;;;;;;;5.70;4.28;;;;;;;;;;10540193;28;20144;-84
2023/06/26 12:36:12;;;;;;;5.22;3.80;;;;;;;;;;10544444;28;20068;-85
2023/06/26 12:41:17;;;;;;;5.25;3.97;;;;;;;;;;10570318;28;20039;-83
2023/06/26 12:46:18;;;;;;;3.95;3.58;;;;;;;;;;10557965;28;20112;-85
2023/06/26 12:51:19;;;;;;;5.07;4.35;;;;;;;;;;10532124;28;20031;-84
2023/06/26 12:56:20;;;;;;;6.40;4.65;;;;;;;;;;10532009;28;20035;-84
2023/06/26 13:01:24;;;;;;;4.22;3.67;;;;;;;;;;10566081;28;20038;-84
2023/06/26 13:06:25;;;;;;;7.17;4.50;;;;;;;;;;10545577;28;20375;-84
2023/06/26 13:11:26;;;;;;;5.30;4.13;;;;;;;;;;10547230;28;20094;-83
2023/06/26 13:16:27;;;;;;;5.43;4.13;;;;;;;;;;10539885;28;20490;-83
2023/06/26 13:21:28;;;;;;;6.53;3.97;;;;;;;;;;10555532;28;20112;-84
2023/06/26 13:26:29;;;;;;;5.13;3.97;;;;;;;;;;10544068;28;20028;-85
2023/06/26 13:31:30;;;;;;;6.93;4.55;;;;;;;;;;10527693;28;20973;-84
2023/06/26 13:36:33;;;;;;;4.35;3.72;;;;;;;;;;10555740;28;20039;-84
2023/06/26 13:41:34;;;;;;;4.13;3.72;;;;;;;;;;10558042;28;20061;-84
2023/06/26 13:46:35;;;;;;;5.40;4.32;;;;;;;;;;10537498;28;20044;-83
2023/06/26 13:51:37;;;;;;;5.28;4.20;;;;;;;;;;10532742;28;20435;-84
2023/06/26 13:56:38;;;;;;;6.63;4.25;;;;;;;;;;10527845;28;20074;-84
2023/06/26 14:01:42;;;;;;;6.05;4.90;;;;;;;;;;10539467;28;20047;-83
2023/06/26 14:06:45;;;;;;;5.03;4.03;;;;;;;;;;10535964;28;20080;-82
2023/06/26 14:11:46;;;;;;;6.78;4.97;;;;;;;;;;10546789;28;20353;-85
2023/06/26 14:16:48;;;;;;;5.40;4.20;;;;;;;;;;10530550;28;20074;-84
2023/06/26 14:21:49;;;;;;;7.75;4.10;;;;;;;;;;10528282;28;20038;-83
2023/06/26 14:26:50;;;;;;;6.68;4.47;;;;;;;;;;10541577;28;20576;-83
2023/06/26 14:31:51;;;;;;;7.35;4.30;;;;;;;;;;10527111;28;20082;-82
2023/06/26 14:36:52;;;;;;;4.22;3.83;;;;;;;;;;10515766;28;20048;-83
2023/06/26 14:41:53;;;;;;;4.35;3.95;;;;;;;;;;10528316;28;20028;-84
2023/06/26 14:46:55;;;;;;;5.28;4.32;;;;;;;;;;10527673;28;20039;-83
2023/06/26 14:51:56;;;;;;;7.00;4.90;;;;;;;;;;10528037;28;20082;-82
2023/06/26 14:56:57;;;;;;;6.65;4.05;;;;;;;;;;10528237;28;20036;-82
2023/06/26 15:01:58;;;;;;;7.38;4.43;;;;;;;;;;10527170;28;20539;-83
2023/06/26 15:06:59;;;;;;;6.30;4.43;;;;;;;;;;10527816;28;20024;-81
2023/06/26 15:12:00;;;;;;;6.53;4.25;;;;;;;;;;10527317;28;20035;-82
2023/06/26 15:17:01;;;;;;;5.25;4.22;;;;;;;;;;10520444;28;20132;-84
2023/06/26 15:22:02;;;;;;;6.38;4.30;;;;;;;;;;10527759;28;20028;-83
2023/06/26 15:27:05;;;;;;;5.13;4.20;;;;;;;;;;10526545;28;20028;-81
2023/06/26 15:32:06;;;;;;;5.63;3.78;;;;;;;;;;10525550;28;20044;-81
2023/06/26 15:37:07;;;;;;;5.70;4.32;;;;;;;;;;10526626;28;20048;-84
2023/06/26 15:42:08;;;;;;;5.32;3.88;;;;;;;;;;10529971;28;20032;-82
2023/06/26 15:47:09;;;;;;;4.88;4.22;;;;;;;;;;10533175;28;20028;-86
2023/06/26 15:52:10;;;;;;;5.80;4.55;;;;;;;;;;10533466;28;20024;-84
2023/06/26 15:57:11;;;;;;;6.22;4.28;;;;;;;;;;10528069;28;20032;-87
2023/06/26 16:02:12;;;;;;;4.88;3.97;;;;;;;;;;10532115;28;21316;-83
2023/06/26 16:07:13;;;;;;;6.55;4.30;;;;;;;;;;10533818;28;20059;-84
2023/06/26 16:12:14;;;;;;;5.93;4.10;;;;;;;;;;10551616;28;20395;-84
2023/06/26 16:17:15;;;;;;;5.53;4.45;;;;;;;;;;10535305;28;20028;-85
2023/06/26 16:22:17;;;;;;;4.40;3.83;;;;;;;;;;10551314;28;20039;-84
2023/06/26 16:27:18;;;;;;;5.63;3.90;;;;;;;;;;10549572;28;20028;-84
2023/06/26 16:32:19;;;;;;;6.97;4.20;;;;;;;;;;10546275;28;20070;-84
2023/06/26 16:37:20;;;;;;;5.35;4.25;;;;;;;;;;10541725;28;20028;-84
2023/06/26 16:42:21;;;;;;;6.43;4.45;;;;;;;;;;10545718;28;20032;-87
2023/06/26 16:47:22;;;;;;;8.50;6.60;;;;;;;;;;10536321;28;20024;-85
2023/06/26 16:52:23;;;;;;;22.42;12.77;;;;;;;;;;10540287;28;20032;-83
2023/06/26 16:57:24;;;;;;;8.65;5.18;;;;;;;;;;10538945;28;20458;-83
2023/06/26 17:02:26;;;;;;;6.43;4.22;;;;;;;;;;10542025;27;20047;-82
2023/06/26 17:07:29;;;;;;;7.55;4.45;;;;;;;;;;10538522;28;20028;-83
2023/06/26 17:12:30;;;;;;;6.68;4.55;;;;;;;;;;10560013;28;20481;-83
2023/06/26 17:17:31;;;;;;;6.00;4.35;;;;;;;;;;10526031;28;20042;-83
2023/06/26 17:22:32;;;;;;;7.65;4.40;;;;;;;;;;10528349;28;20038;-82
2023/06/26 17:27:34;;;;;;;5.13;4.55;;;;;;;;;;10529441;28;20020;-85
2023/06/26 17:32:35;;;;;;;6.47;4.47;;;;;;;;;;10529617;28;20054;-84
2023/06/26 17:37:36;;;;;;;6.55;4.78;;;;;;;;;;10527966;28;20044;-84
2023/06/26 17:42:41;;;;;;;6.20;4.80;;;;;;;;;;10530350;28;20113;-82
2023/06/26 17:47:42;;;;;;;6.30;4.78;;;;;;;;;;10529930;28;20099;-83
2023/06/26 17:52:43;;;;;;;7.85;5.30;;;;;;;;;;10526401;28;20440;-81
2023/06/26 17:57:44;;;;;;;6.47;4.80;;;;;;;;;;10521370;28;20055;-82
2023/06/26 18:02:45;;;;;;;5.40;4.30;;;;;;;;;;10541603;28;20032;-83
2023/06/26 18:07:46;;;;;;;6.18;4.57;;;;;;;;;;10529428;28;20125;-83
2023/06/26 18:12:51;;;;;;;6.30;4.93;;;;;;;;;;10525810;28;20046;-83
2023/06/26 18:17:52;;;;;;;8.00;4.32;;;;;;;;;;10528445;28;20123;-82
2023/06/26 18:22:55;;;;;;;5.93;4.43;;;;;;;;;;10556328;28;20051;-82
2023/06/26 18:27:56;;;;;;;10.30;5.45;;;;;;;;;;10521942;28;20066;-80
2023/06/26 18:32:57;;;;;;;7.75;4.90;;;;;;;;;;10536660;28;20048;-81
2023/06/26 18:37:58;;;;;;;8.65;5.53;;;;;;;;;;10542430;28;20479;-83
2023/06/26 18:42:59;;;;;;;6.55;5.13;;;;;;;;;;10525510;28;20077;-82
2023/06/26 18:48:00;;;;;;;8.82;5.88;;;;;;;;;;10529360;28;20024;-81
2023/06/26 18:53:01;;;;;;;9.38;6.10;;;;;;;;;;10568471;28;20031;-83
2023/06/26 18:58:03;;;;;;;9.20;5.03;;;;;;;;;;10523259;28;20055;-83
2023/06/26 19:03:04;;;;;;;7.40;5.72;;;;;;;;;;10524830;28;20021;-82
2023/06/26 19:08:05;;;;;;;8.65;6.10;;;;;;;;;;10526891;28;20482;-82
2023/06/26 19:13:06;;;;;;;9.90;5.93;;;;;;;;;;10549667;28;20039;-82
2023/06/26 19:18:07;;;;;;;9.98;6.55;;;;;;;;;;10543175;28;20403;-80
2023/06/26 19:23:08;;;;;;;9.80;6.85;;;;;;;;;;10539179;28;20943;-82
2023/06/26 19:28:11;;;;;;;10.40;7.20;;;;;;;;;;10526179;28;20098;-81
2023/06/26 19:33:12;;;;;;;10.07;6.85;;;;;;;;;;10546892;28;20047;-81
2023/06/26 19:38:13;;;;;;;9.18;5.53;;;;;;;;;;10549241;28;20047;-81
2023/06/26 19:43:18;;;;;;;7.95;5.78;;;;;;;;;;10534888;28;20028;-82
2023/06/26 19:48:19;;;;;;;10.05;6.13;;;;;;;;;;10538689;28;20034;-81
2023/06/26 19:53:20;;;;;;;9.50;5.85;;;;;;;;;;10537612;28;20789;-81
2023/06/26 19:58:21;;;;;;;11.02;6.60;;;;;;;;;;10543245;28;20036;-83
2023/06/26 20:03:22;;;;;;;10.25;6.22;;;;;;;;;;10536517;28;20028;-83
2023/06/26 20:08:23;;;;;;;10.38;6.30;;;;;;;;;;10542625;28;20059;-83
2023/06/26 20:13:24;;;;;;;11.02;7.05;;;;;;;;;;10533535;28;20028;-82
2023/06/26 20:18:25;;;;;;;13.50;6.82;;;;;;;;;;10542926;28;20073;-81
2023/06/26 20:23:26;;;;;;;10.43;7.35;;;;;;;;;;10552310;28;20043;-82
2023/06/26 20:28:27;;;;;;;10.80;7.43;;;;;;;;;;10544069;28;20070;-82
2023/06/26 20:33:28;;;;;;;11.05;7.03;;;;;;;;;;10545546;28;20105;-82
2023/06/26 20:38:29;;;;;;;11.60;6.90;;;;;;;;;;10546269;28;20197;-81
2023/06/26 20:43:31;;;;;;;12.63;8.20;;;;;;;;;;10545506;28;20028;-81
2023/06/26 20:48:32;;;;;;;12.27;7.60;;;;;;;;;;10530947;28;20024;-81
2023/06/26 20:53:33;;;;;;;15.48;7.70;;;;;;;;;;10545829;28;20024;-82
2023/06/26 20:58:34;;;;;;;14.65;8.48;;;;;;;;;;10530154;28;20028;-80
2023/06/26 21:03:35;;;;;;;13.27;7.60;;;;;;;;;;10542663;28;20396;-82
2023/06/26 21:08:36;;;;;;;11.70;6.72;;;;;;;;;;10531385;28;20050;-82
2023/06/26 21:13:37;;;;;;;11.52;7.80;;;;;;;;;;10556668;28;20111;-82
2023/06/26 21:18:38;;;;;;;11.27;6.32;;;;;;;;;;10559728;28;20455;-81
2023/06/26 21:23:39;;;;;;;12.57;7.68;;;;;;;;;;10568370;28;20157;-83
2023/06/26 21:28:40;;;;;;;14.57;7.43;;;;;;;;;;10547096;28;20024;-83
2023/06/26 21:33:41;;;;;;;17.48;7.22;;;;;;;;;;10557638;28;20723;-82
2023/06/26 21:38:42;;;;;;;9.98;6.70;;;;;;;;;;10566221;28;20130;-80
2023/06/26 21:43:43;;;;;;;10.95;6.93;;;;;;;;;;10556995;28;20034;-82
2023/06/26 21:48:44;;;;;;;11.23;7.28;;;;;;;;;;10541033;28;20032;-81
2023/06/26 21:53:45;;;;;;;15.65;8.07;;;;;;;;;;10533834;28;20028;-82
2023/06/26 21:58:46;;;;;;;11.48;7.80;;;;;;;;;;10543647;28;20039;-81
2023/06/26 22:03:47;;;;;;;10.68;7.32;;;;;;;;;;10534784;28;20376;-81
2023/06/26 22:08:48;;;;;;;12.88;8.23;;;;;;;;;;10528381;28;20032;-82
2023/06/26 22:13:49;;;;;;;9.50;6.85;;;;;;;;;;10547132;28;20035;-82
2023/06/26 22:18:50;;;;;;;10.65;6.93;;;;;;;;;;10526783;28;20038;-82
2023/06/26 22:23:51;;;;;;;14.43;9.45;;;;;;;;;;10543378;28;20494;-80
2023/06/26 22:28:52;;;;;;;15.65;9.45;;;;;;;;;;10566726;28;20059;-81
2023/06/26 22:33:53;;;;;;;14.10;9.13;;;;;;;;;;10542993;28;20059;-82
2023/06/26 22:38:55;;;;;;;13.02;9.05;;;;;;;;;;10545696;28;20049;-82
2023/06/26 22:43:56;;;;;;;12.55;8.85;;;;;;;;;;10529277;28;20028;-82
2023/06/26 22:48:57;;;;;;;8.35;5.30;;;;;;;;;;10542607;28;20039;-82
2023/06/26 22:53:58;;;;;;;15.40;6.20;;;;;;;;;;10554789;28;20065;-84
2023/06/26 22:58:59;;;;;;;9.63;7.03;;;;;;;;;;10530469;28;20043;-84
2023/06/26 23:04:00;;;;;;;11.18;6.88;;;;;;;;;;10554319;28;20375;-85
2023/06/26 23:09:01;;;;;;;13.65;7.07;;;;;;;;;;10527252;28;20038;-87
2023/06/26 23:14:02;;;;;;;10.55;7.45;;;;;;;;;;10527844;28;20047;-85
2023/06/26 23:19:03;;;;;;;16.25;8.48;;;;;;;;;;10529317;28;20068;-85
2023/06/26 23:24:04;;;;;;;12.02;8.38;;;;;;;;;;10525419;28;20471;-85
2023/06/26 23:29:05;;;;;;;10.65;7.60;;;;;;;;;;10550265;28;20023;-85
2023/06/26 23:34:08;;;;;;;12.30;8.65;;;;;;;;;;10550742;28;20059;-85
2023/06/26 23:39:09;;;;;;;16.83;10.80;;;;;;;;;;10548580;28;20054;-86
2023/06/26 23:44:17;;;;;;;20.75;12.15;;;;;;;;;;10569163;28;20511;-86
2023/06/26 23:49:18;;;;;;;17.58;11.60;;;;;;;;;;10528215;28;20024;-85
2023/06/26 23:54:19;;;;;;;23.67;14.82;;;;;;;;;;10530353;28;20708;-88
2023/06/26 23:59:20;;;;;;;37.25;18.95;;;;;;;;;;10553432;28;20036;-86
